Aviation Digital Data Service (ADDS)

Output produced by METARs form (1948 UTC 07 July 2015)
found at http://www.aviationweather.gov/adds/metars/
 
KEWR 071837Z 0719/0824 22012G18KT P6SM VCSH BKN035 
     FM071905 16012KT P6SM VCSH BKN035 
     TEMPO 0720/0721 3SM -TSRA BKN035CB 
     FM080000 22008KT P6SM SCT040 BKN250 
     FM081400 27010KT P6SM SCT050 OVC100